sensor_id;sensor_type;location;lat;lon;timestamp;pressure;altitude;pressure_sealevel;temperature;humidity
41264;BME280;26998;48.714;9.414;2024-01-15T00:01:33;97874.88;;;-3.00;75.08
41264;BME280;26998;48.714;9.414;2024-01-15T00:04:01;97872.91;;;-2.98;75.17
41264;BME280;26998;48.714;9.414;2024-01-15T00:06:29;97855.75;;;-2.99;75.16
41264;BME280;26998;48.714;9.414;2024-01-15T00:08:55;97866.13;;;-2.99;74.74
41264;BME280;26998;48.714;9.414;2024-01-15T00:11:24;97884.13;;;-2.67;74.53
41264;BME280;26998;48.714;9.414;2024-01-15T00:13:53;97882.50;;;-2.68;74.30
41264;BME280;26998;48.714;9.414;2024-01-15T00:16:20;97878.69;;;-2.80;75.03
41264;BME280;26998;48.714;9.414;2024-01-15T00:18:48;97858.34;;;-2.99;74.93
41264;BME280;26998;48.714;9.414;2024-01-15T00:21:15;97872.69;;;-2.81;74.81
41264;BME280;26998;48.714;9.414;2024-01-15T00:23:44;97848.75;;;-2.60;73.79
41264;BME280;26998;48.714;9.414;2024-01-15T00:26:11;97819.78;;;-2.94;74.07
41264;BME280;26998;48.714;9.414;2024-01-15T00:28:38;97842.22;;;-2.79;74.41
41264;BME280;26998;48.714;9.414;2024-01-15T00:31:07;97847.75;;;-2.90;74.70
41264;BME280;26998;48.714;9.414;2024-01-15T00:33:36;97848.53;;;-2.81;74.38
41264;BME280;26998;48.714;9.414;2024-01-15T00:36:06;97866.94;;;-2.68;74.61
41264;BME280;26998;48.714;9.414;2024-01-15T00:38:33;97844.03;;;-2.87;74.45
41264;BME280;26998;48.714;9.414;2024-01-15T00:41:04;97876.38;;;-2.75;75.07
41264;BME280;26998;48.714;9.414;2024-01-15T00:43:33;97852.28;;;-2.84;74.83
41264;BME280;26998;48.714;9.414;2024-01-15T00:46:06;97845.75;;;-2.72;74.28
41264;BME280;26998;48.714;9.414;2024-01-15T00:48:33;97827.38;;;-2.93;74.46
41264;BME280;26998;48.714;9.414;2024-01-15T00:51:09;97843.03;;;-2.78;74.19
41264;BME280;26998;48.714;9.414;2024-01-15T00:53:35;97874.69;;;-2.60;74.90
41264;BME280;26998;48.714;9.414;2024-01-15T00:56:04;97868.72;;;-2.61;74.55
41264;BME280;26998;48.714;9.414;2024-01-15T00:58:31;97851.69;;;-2.63;73.80
41264;BME280;26998;48.714;9.414;2024-01-15T01:00:58;97855.28;;;-2.64;73.83
41264;BME280;26998;48.714;9.414;2024-01-15T01:03:24;97868.34;;;-2.58;73.97
41264;BME280;26998;48.714;9.414;2024-01-15T01:05:51;97850.09;;;-2.64;74.30
41264;BME280;26998;48.714;9.414;2024-01-15T01:08:18;97847.97;;;-2.61;74.50
41264;BME280;26998;48.714;9.414;2024-01-15T01:10:44;97834.47;;;-2.56;74.73
41264;BME280;26998;48.714;9.414;2024-01-15T01:13:11;97865.16;;;-2.37;74.37
41264;BME280;26998;48.714;9.414;2024-01-15T01:15:38;97861.25;;;-2.33;74.19
41264;BME280;26998;48.714;9.414;2024-01-15T01:18:07;97811.91;;;-2.78;75.17
41264;BME280;26998;48.714;9.414;2024-01-15T01:20:35;97853.91;;;-2.52;75.43
41264;BME280;26998;48.714;9.414;2024-01-15T01:23:01;97845.94;;;-2.51;74.92
41264;BME280;26998;48.714;9.414;2024-01-15T01:25:32;97826.06;;;-1.76;71.82
41264;BME280;26998;48.714;9.414;2024-01-15T01:27:59;97860.03;;;-1.48;70.66
41264;BME280;26998;48.714;9.414;2024-01-15T01:30:25;97866.69;;;-1.83;72.45
41264;BME280;26998;48.714;9.414;2024-01-15T01:32:54;97827.28;;;-2.23;72.66
41264;BME280;26998;48.714;9.414;2024-01-15T01:35:24;97858.88;;;-2.20;73.68
41264;BME280;26998;48.714;9.414;2024-01-15T01:37:51;97847.56;;;-2.27;74.25
41264;BME280;26998;48.714;9.414;2024-01-15T01:40:18;97860.75;;;-2.14;73.56
41264;BME280;26998;48.714;9.414;2024-01-15T01:42:45;97869.97;;;-1.52;71.48
41264;BME280;26998;48.714;9.414;2024-01-15T01:45:15;97864.63;;;-1.50;71.07
41264;BME280;26998;48.714;9.414;2024-01-15T01:47:41;97863.94;;;-1.30;70.30
41264;BME280;26998;48.714;9.414;2024-01-15T01:50:08;97824.38;;;-1.40;69.54
41264;BME280;26998;48.714;9.414;2024-01-15T01:52:35;97807.09;;;-1.62;70.02
41264;BME280;26998;48.714;9.414;2024-01-15T01:55:03;97855.75;;;-1.12;68.78
41264;BME280;26998;48.714;9.414;2024-01-15T01:57:31;97849.84;;;-1.21;69.46
41264;BME280;26998;48.714;9.414;2024-01-15T02:00:02;97830.28;;;-1.60;69.96
41264;BME280;26998;48.714;9.414;2024-01-15T02:02:31;97855.22;;;-0.93;67.93
41264;BME280;26998;48.714;9.414;2024-01-15T02:04:59;97853.25;;;-1.05;68.49
41264;BME280;26998;48.714;9.414;2024-01-15T02:07:26;97855.31;;;-1.16;68.73
41264;BME280;26998;48.714;9.414;2024-01-15T02:09:52;97815.63;;;-1.39;68.24
41264;BME280;26998;48.714;9.414;2024-01-15T02:12:19;97844.03;;;-1.23;68.79
41264;BME280;26998;48.714;9.414;2024-01-15T02:14:46;97853.88;;;-1.03;68.44
41264;BME280;26998;48.714;9.414;2024-01-15T02:17:16;97812.28;;;-1.03;67.83
41264;BME280;26998;48.714;9.414;2024-01-15T02:19:42;97826.00;;;-1.09;67.80
41264;BME280;26998;48.714;9.414;2024-01-15T02:22:09;97849.38;;;-0.80;67.50
41264;BME280;26998;48.714;9.414;2024-01-15T02:24:35;97847.59;;;-0.94;67.55
41264;BME280;26998;48.714;9.414;2024-01-15T02:27:02;97821.56;;;-0.80;66.88
41264;BME280;26998;48.714;9.414;2024-01-15T02:29:29;97822.31;;;-1.00;67.39
41264;BME280;26998;48.714;9.414;2024-01-15T02:31:55;97828.75;;;-0.82;67.44
41264;BME280;26998;48.714;9.414;2024-01-15T02:34:22;97842.81;;;-0.76;67.52
41264;BME280;26998;48.714;9.414;2024-01-15T02:36:48;97802.16;;;-1.28;68.42
41264;BME280;26998;48.714;9.414;2024-01-15T02:39:15;97823.50;;;-1.17;68.75
41264;BME280;26998;48.714;9.414;2024-01-15T02:41:42;97841.06;;;-1.20;69.38
41264;BME280;26998;48.714;9.414;2024-01-15T02:44:09;97831.03;;;-0.93;68.67
41264;BME280;26998;48.714;9.414;2024-01-15T02:46:35;97840.34;;;-0.99;68.74
41264;BME280;26998;48.714;9.414;2024-01-15T02:49:02;97819.44;;;-0.91;67.97
41264;BME280;26998;48.714;9.414;2024-01-15T02:51:29;97821.97;;;-0.97;67.85
41264;BME280;26998;48.714;9.414;2024-01-15T02:53:55;97840.28;;;-0.70;67.55
41264;BME280;26998;48.714;9.414;2024-01-15T02:56:22;97829.38;;;-0.80;67.56
41264;BME280;26998;48.714;9.414;2024-01-15T02:58:52;97815.50;;;-0.87;67.23
41264;BME280;26998;48.714;9.414;2024-01-15T03:01:19;97799.25;;;-0.89;67.90
41264;BME280;26998;48.714;9.414;2024-01-15T03:03:47;97815.31;;;-0.85;67.74
41264;BME280;26998;48.714;9.414;2024-01-15T03:06:14;97819.88;;;-0.73;67.16
41264;BME280;26998;48.714;9.414;2024-01-15T03:08:40;97815.78;;;-1.11;68.80
41264;BME280;26998;48.714;9.414;2024-01-15T03:11:07;97810.97;;;-1.29;69.76
41264;BME280;26998;48.714;9.414;2024-01-15T03:13:36;97807.34;;;-0.98;69.42
41264;BME280;26998;48.714;9.414;2024-01-15T03:16:04;97808.91;;;-1.33;69.50
41264;BME280;26998;48.714;9.414;2024-01-15T03:18:31;97803.25;;;-1.37;69.81
41264;BME280;26998;48.714;9.414;2024-01-15T03:20:58;97794.13;;;-1.47;69.91
41264;BME280;26998;48.714;9.414;2024-01-15T03:23:27;97818.75;;;-1.43;71.33
41264;BME280;26998;48.714;9.414;2024-01-15T03:25:54;97805.22;;;-1.68;71.76
41264;BME280;26998;48.714;9.414;2024-01-15T03:28:20;97796.44;;;-1.81;72.11
41264;BME280;26998;48.714;9.414;2024-01-15T03:30:47;97814.16;;;-1.70;71.95
41264;BME280;26998;48.714;9.414;2024-01-15T03:33:15;97811.59;;;-1.56;71.62
41264;BME280;26998;48.714;9.414;2024-01-15T03:35:41;97793.94;;;-1.75;71.96
41264;BME280;26998;48.714;9.414;2024-01-15T03:38:08;97800.09;;;-1.76;71.89
41264;BME280;26998;48.714;9.414;2024-01-15T03:40:34;97806.53;;;-1.72;72.54
41264;BME280;26998;48.714;9.414;2024-01-15T03:43:01;97777.44;;;-1.82;72.00
41264;BME280;26998;48.714;9.414;2024-01-15T03:45:28;97735.06;;;-2.11;72.01
41264;BME280;26998;48.714;9.414;2024-01-15T03:47:55;97776.72;;;-1.90;72.34
41264;BME280;26998;48.714;9.414;2024-01-15T03:50:22;97756.53;;;-2.03;72.46
41264;BME280;26998;48.714;9.414;2024-01-15T03:52:48;97766.13;;;-2.03;72.29
41264;BME280;26998;48.714;9.414;2024-01-15T03:55:18;97740.16;;;-2.18;73.16
41264;BME280;26998;48.714;9.414;2024-01-15T03:57:44;97747.50;;;-2.07;72.19
41264;BME280;26998;48.714;9.414;2024-01-15T04:00:12;97791.75;;;-1.86;72.83
41264;BME280;26998;48.714;9.414;2024-01-15T04:02:41;97792.56;;;-1.85;73.09
41264;BME280;26998;48.714;9.414;2024-01-15T04:05:11;97785.69;;;-1.78;73.05
41264;BME280;26998;48.714;9.414;2024-01-15T04:07:38;97789.81;;;-1.69;72.50
41264;BME280;26998;48.714;9.414;2024-01-15T04:10:05;97755.59;;;-1.44;71.15
41264;BME280;26998;48.714;9.414;2024-01-15T04:12:32;97767.44;;;-1.56;71.46
41264;BME280;26998;48.714;9.414;2024-01-15T04:14:59;97783.72;;;-1.62;72.35
41264;BME280;26998;48.714;9.414;2024-01-15T04:17:26;97748.16;;;-1.90;72.63
41264;BME280;26998;48.714;9.414;2024-01-15T04:19:53;97772.97;;;-1.73;72.95
41264;BME280;26998;48.714;9.414;2024-01-15T04:22:20;97765.41;;;-1.83;73.31
41264;BME280;26998;48.714;9.414;2024-01-15T04:24:47;97780.03;;;-1.82;73.54
41264;BME280;26998;48.714;9.414;2024-01-15T04:27:13;97755.59;;;-1.87;73.89
41264;BME280;26998;48.714;9.414;2024-01-15T04:29:40;97777.72;;;-1.77;73.78
41264;BME280;26998;48.714;9.414;2024-01-15T04:32:07;97764.03;;;-1.56;72.92
41264;BME280;26998;48.714;9.414;2024-01-15T04:34:34;97759.38;;;-1.61;72.97
41264;BME280;26998;48.714;9.414;2024-01-15T04:37:03;97738.22;;;-1.87;73.12
41264;BME280;26998;48.714;9.414;2024-01-15T04:39:30;97744.56;;;-1.60;72.59
41264;BME280;26998;48.714;9.414;2024-01-15T04:42:00;97756.50;;;-1.51;72.82
41264;BME280;26998;48.714;9.414;2024-01-15T04:44:29;97753.38;;;-1.61;72.58
41264;BME280;26998;48.714;9.414;2024-01-15T04:46:56;97716.94;;;-1.17;70.26
41264;BME280;26998;48.714;9.414;2024-01-15T04:49:22;97761.56;;;-0.78;70.24
41264;BME280;26998;48.714;9.414;2024-01-15T04:51:49;97706.88;;;-1.56;72.00
41264;BME280;26998;48.714;9.414;2024-01-15T04:54:16;97767.22;;;-1.40;72.67
41264;BME280;26998;48.714;9.414;2024-01-15T04:56:45;97759.38;;;-1.61;73.15
41264;BME280;26998;48.714;9.414;2024-01-15T04:59:11;97747.44;;;-1.70;73.17
41264;BME280;26998;48.714;9.414;2024-01-15T05:01:38;97711.44;;;-1.58;71.80
41264;BME280;26998;48.714;9.414;2024-01-15T05:04:05;97734.97;;;-1.31;72.27
41264;BME280;26998;48.714;9.414;2024-01-15T05:06:32;97735.59;;;-1.14;71.10
41264;BME280;26998;48.714;9.414;2024-01-15T05:08:58;97748.16;;;-0.96;71.66
41264;BME280;26998;48.714;9.414;2024-01-15T05:11:28;97727.34;;;-0.96;70.82
41264;BME280;26998;48.714;9.414;2024-01-15T05:13:55;97765.66;;;-0.27;68.78
41264;BME280;26998;48.714;9.414;2024-01-15T05:16:21;97765.22;;;-0.31;68.77
41264;BME280;26998;48.714;9.414;2024-01-15T05:18:48;97739.28;;;-0.66;70.03
41264;BME280;26998;48.714;9.414;2024-01-15T05:21:15;97746.72;;;-0.63;70.21
41264;BME280;26998;48.714;9.414;2024-01-15T05:23:45;97743.66;;;-0.88;71.14
41264;BME280;26998;48.714;9.414;2024-01-15T05:26:11;97753.63;;;-0.91;71.44
41264;BME280;26998;48.714;9.414;2024-01-15T05:28:38;97755.38;;;-0.98;72.16
41264;BME280;26998;48.714;9.414;2024-01-15T05:31:07;97726.34;;;-1.17;72.22
41264;BME280;26998;48.714;9.414;2024-01-15T05:33:33;97745.13;;;-1.00;71.78
41264;BME280;26998;48.714;9.414;2024-01-15T05:36:00;97730.97;;;-1.12;72.43
41264;BME280;26998;48.714;9.414;2024-01-15T05:38:27;97740.13;;;-0.17;69.42
41264;BME280;26998;48.714;9.414;2024-01-15T05:40:56;97740.88;;;-0.23;68.94
41264;BME280;26998;48.714;9.414;2024-01-15T05:43:25;97751.38;;;0.18;67.42
41264;BME280;26998;48.714;9.414;2024-01-15T05:45:52;97696.66;;;-0.65;69.73
41264;BME280;26998;48.714;9.414;2024-01-15T05:48:19;97740.16;;;-0.59;71.10
41264;BME280;26998;48.714;9.414;2024-01-15T05:50:46;97737.66;;;-0.67;71.33
41264;BME280;26998;48.714;9.414;2024-01-15T05:53:12;97701.59;;;-0.91;71.40
41264;BME280;26998;48.714;9.414;2024-01-15T05:55:39;97681.97;;;-0.24;68.91
41264;BME280;26998;48.714;9.414;2024-01-15T05:58:06;97714.84;;;-0.23;69.04
41264;BME280;26998;48.714;9.414;2024-01-15T06:00:32;97701.91;;;-0.38;69.61
41264;BME280;26998;48.714;9.414;2024-01-15T06:03:01;97686.00;;;-0.49;69.85
41264;BME280;26998;48.714;9.414;2024-01-15T06:05:28;97726.16;;;-0.37;70.47
41264;BME280;26998;48.714;9.414;2024-01-15T06:07:55;97716.84;;;-0.25;69.59
41264;BME280;26998;48.714;9.414;2024-01-15T06:10:22;97710.13;;;-0.13;69.84
41264;BME280;26998;48.714;9.414;2024-01-15T06:12:48;97683.91;;;-0.05;69.15
41264;BME280;26998;48.714;9.414;2024-01-15T06:15:15;97694.63;;;0.07;68.59
41264;BME280;26998;48.714;9.414;2024-01-15T06:17:45;97719.22;;;-0.03;68.47
41264;BME280;26998;48.714;9.414;2024-01-15T06:20:12;97702.63;;;0.05;68.52
41264;BME280;26998;48.714;9.414;2024-01-15T06:22:39;97720.53;;;0.15;68.64
41264;BME280;26998;48.714;9.414;2024-01-15T06:25:08;97681.25;;;-0.18;68.73
41264;BME280;26998;48.714;9.414;2024-01-15T06:27:35;97693.03;;;-0.22;69.22
41264;BME280;26998;48.714;9.414;2024-01-15T06:30:02;97729.53;;;0.12;68.36
41264;BME280;26998;48.714;9.414;2024-01-15T06:32:31;97728.91;;;0.10;68.75
41264;BME280;26998;48.714;9.414;2024-01-15T06:34:57;97720.72;;;0.13;68.62
41264;BME280;26998;48.714;9.414;2024-01-15T06:37:26;97696.28;;;-0.14;69.38
41264;BME280;26998;48.714;9.414;2024-01-15T06:39:54;97708.22;;;0.02;69.13
41264;BME280;26998;48.714;9.414;2024-01-15T06:42:20;97720.44;;;0.02;69.79
41264;BME280;26998;48.714;9.414;2024-01-15T06:44:49;97701.72;;;-0.09;69.33
41264;BME280;26998;48.714;9.414;2024-01-15T06:47:15;97722.38;;;0.21;69.06
41264;BME280;26998;48.714;9.414;2024-01-15T06:49:44;97672.53;;;-0.04;69.25
41264;BME280;26998;48.714;9.414;2024-01-15T06:52:10;97711.66;;;0.09;69.88
41264;BME280;26998;48.714;9.414;2024-01-15T06:54:38;97695.09;;;-0.39;70.72
41264;BME280;26998;48.714;9.414;2024-01-15T06:57:05;97679.69;;;-0.40;70.82
41264;BME280;26998;48.714;9.414;2024-01-15T06:59:35;97711.00;;;0.00;70.26
41264;BME280;26998;48.714;9.414;2024-01-15T07:02:02;97697.44;;;0.05;69.72
41264;BME280;26998;48.714;9.414;2024-01-15T07:04:29;97693.19;;;0.04;69.93
41264;BME280;26998;48.714;9.414;2024-01-15T07:06:56;97693.81;;;0.06;69.18
41264;BME280;26998;48.714;9.414;2024-01-15T07:09:28;97637.56;;;-0.23;69.00
41264;BME280;26998;48.714;9.414;2024-01-15T07:11:56;97668.06;;;-0.38;70.44
41264;BME280;26998;48.714;9.414;2024-01-15T07:14:24;97675.88;;;-0.10;69.41
41264;BME280;26998;48.714;9.414;2024-01-15T07:16:50;97694.09;;;-0.10;69.99
41264;BME280;26998;48.714;9.414;2024-01-15T07:19:17;97647.16;;;-0.51;69.80
41264;BME280;26998;48.714;9.414;2024-01-15T07:21:44;97692.06;;;0.13;68.88
41264;BME280;26998;48.714;9.414;2024-01-15T07:24:12;97692.69;;;0.15;68.44
41264;BME280;26998;48.714;9.414;2024-01-15T07:26:39;97703.94;;;0.22;68.13
41264;BME280;26998;48.714;9.414;2024-01-15T07:29:06;97669.31;;;-0.06;68.11
41264;BME280;26998;48.714;9.414;2024-01-15T07:31:35;97701.91;;;-0.10;68.65
41264;BME280;26998;48.714;9.414;2024-01-15T07:34:07;97709.03;;;-0.25;68.92
41264;BME280;26998;48.714;9.414;2024-01-15T07:36:34;97678.19;;;-0.49;69.94
41264;BME280;26998;48.714;9.414;2024-01-15T07:39:01;97697.13;;;-0.34;69.71
41264;BME280;26998;48.714;9.414;2024-01-15T07:41:27;97713.63;;;0.35;68.26
41264;BME280;26998;48.714;9.414;2024-01-15T07:43:54;97723.56;;;0.18;68.98
41264;BME280;26998;48.714;9.414;2024-01-15T07:46:21;97721.88;;;0.11;69.23
41264;BME280;26998;48.714;9.414;2024-01-15T07:48:48;97714.84;;;0.05;69.28
41264;BME280;26998;48.714;9.414;2024-01-15T07:51:17;97717.28;;;0.13;68.94
41264;BME280;26998;48.714;9.414;2024-01-15T07:53:44;97660.13;;;-0.02;67.18
41264;BME280;26998;48.714;9.414;2024-01-15T07:56:14;97676.38;;;0.00;67.53
41264;BME280;26998;48.714;9.414;2024-01-15T07:58:41;97710.72;;;0.17;67.33
41264;BME280;26998;48.714;9.414;2024-01-15T08:01:08;97688.44;;;0.14;66.68
41264;BME280;26998;48.714;9.414;2024-01-15T08:03:35;97712.41;;;0.31;66.18
41264;BME280;26998;48.714;9.414;2024-01-15T08:06:03;97706.97;;;0.73;63.94
41264;BME280;26998;48.714;9.414;2024-01-15T08:08:30;97715.41;;;0.68;64.10
41264;BME280;26998;48.714;9.414;2024-01-15T08:10:57;97717.72;;;0.50;65.22
41264;BME280;26998;48.714;9.414;2024-01-15T08:13:26;97708.47;;;0.41;65.86
41264;BME280;26998;48.714;9.414;2024-01-15T08:15:53;97708.38;;;0.28;66.40
41264;BME280;26998;48.714;9.414;2024-01-15T08:18:19;97708.41;;;0.35;66.21
41264;BME280;26998;48.714;9.414;2024-01-15T08:20:48;97664.16;;;0.07;66.10
41264;BME280;26998;48.714;9.414;2024-01-15T08:23:15;97667.25;;;0.17;65.48
41264;BME280;26998;48.714;9.414;2024-01-15T08:25:41;97665.81;;;0.15;65.50
41264;BME280;26998;48.714;9.414;2024-01-15T08:28:08;97696.59;;;0.32;65.67
41264;BME280;26998;48.714;9.414;2024-01-15T08:30:35;97713.00;;;0.67;64.73
41264;BME280;26998;48.714;9.414;2024-01-15T08:33:02;97701.31;;;0.56;64.75
41264;BME280;26998;48.714;9.414;2024-01-15T08:35:37;97699.25;;;0.45;64.87
41264;BME280;26998;48.714;9.414;2024-01-15T08:38:03;97674.03;;;0.59;62.71
41264;BME280;26998;48.714;9.414;2024-01-15T08:40:31;97676.44;;;1.21;60.38
41264;BME280;26998;48.714;9.414;2024-01-15T08:42:58;97692.44;;;1.04;60.99
41264;BME280;26998;48.714;9.414;2024-01-15T08:45:24;97669.81;;;1.25;60.09
41264;BME280;26998;48.714;9.414;2024-01-15T08:47:52;97693.94;;;1.46;58.83
41264;BME280;26998;48.714;9.414;2024-01-15T08:50:20;97694.72;;;1.27;60.09
41264;BME280;26998;48.714;9.414;2024-01-15T08:52:47;97697.94;;;1.29;59.45
41264;BME280;26998;48.714;9.414;2024-01-15T08:55:13;97713.34;;;1.17;60.51
41264;BME280;26998;48.714;9.414;2024-01-15T08:57:40;97704.88;;;1.02;60.85
41264;BME280;26998;48.714;9.414;2024-01-15T09:00:07;97691.91;;;1.35;58.49
41264;BME280;26998;48.714;9.414;2024-01-15T09:02:37;97704.97;;;1.48;59.02
41264;BME280;26998;48.714;9.414;2024-01-15T09:05:04;97678.63;;;1.17;59.21
41264;BME280;26998;48.714;9.414;2024-01-15T09:07:32;97723.69;;;1.84;58.54
41264;BME280;26998;48.714;9.414;2024-01-15T09:09:58;97707.78;;;1.73;57.66
41264;BME280;26998;48.714;9.414;2024-01-15T09:12:26;97711.41;;;1.59;58.15
41264;BME280;26998;48.714;9.414;2024-01-15T09:14:54;97718.81;;;1.49;58.43
41264;BME280;26998;48.714;9.414;2024-01-15T09:17:20;97715.22;;;1.56;57.95
41264;BME280;26998;48.714;9.414;2024-01-15T09:19:49;97696.13;;;1.49;58.27
41264;BME280;26998;48.714;9.414;2024-01-15T09:22:16;97715.63;;;1.47;58.40
41264;BME280;26998;48.714;9.414;2024-01-15T09:24:45;97707.97;;;1.45;58.60
41264;BME280;26998;48.714;9.414;2024-01-15T09:27:12;97704.19;;;1.67;57.33
41264;BME280;26998;48.714;9.414;2024-01-15T09:29:39;97699.53;;;1.95;56.52
41264;BME280;26998;48.714;9.414;2024-01-15T09:32:09;97674.66;;;1.86;56.18
41264;BME280;26998;48.714;9.414;2024-01-15T09:34:36;97689.53;;;1.86;56.38
41264;BME280;26998;48.714;9.414;2024-01-15T09:37:03;97691.31;;;1.92;55.68
41264;BME280;26998;48.714;9.414;2024-01-15T09:39:31;97640.13;;;1.39;56.38
41264;BME280;26998;48.714;9.414;2024-01-15T09:41:58;97671.66;;;1.63;56.81
41264;BME280;26998;48.714;9.414;2024-01-15T09:44:26;97677.06;;;1.88;56.03
41264;BME280;26998;48.714;9.414;2024-01-15T09:46:54;97632.88;;;1.67;55.90
41264;BME280;26998;48.714;9.414;2024-01-15T09:49:22;97657.13;;;1.93;55.54
41264;BME280;26998;48.714;9.414;2024-01-15T09:51:50;97669.97;;;2.14;55.04
41264;BME280;26998;48.714;9.414;2024-01-15T09:54:31;97636.66;;;1.90;54.75
41264;BME280;26998;48.714;9.414;2024-01-15T09:57:00;97664.19;;;1.99;55.30
41264;BME280;26998;48.714;9.414;2024-01-15T09:59:28;97676.00;;;2.15;54.88
41264;BME280;26998;48.714;9.414;2024-01-15T10:01:55;97668.38;;;2.00;55.30
41264;BME280;26998;48.714;9.414;2024-01-15T10:04:22;97640.81;;;2.24;54.39
41264;BME280;26998;48.714;9.414;2024-01-15T10:06:51;97657.84;;;2.40;54.20
41264;BME280;26998;48.714;9.414;2024-01-15T10:09:18;97653.44;;;2.33;54.66
41264;BME280;26998;48.714;9.414;2024-01-15T10:11:45;97611.25;;;2.23;53.99
41264;BME280;26998;48.714;9.414;2024-01-15T10:14:12;97644.75;;;2.46;54.43
41264;BME280;26998;48.714;9.414;2024-01-15T10:16:40;97637.75;;;2.33;53.88
41264;BME280;26998;48.714;9.414;2024-01-15T10:19:09;97633.16;;;2.29;54.54
41264;BME280;26998;48.714;9.414;2024-01-15T10:21:37;97639.06;;;2.56;54.29
41264;BME280;26998;48.714;9.414;2024-01-15T10:24:04;97595.16;;;2.26;53.98
41264;BME280;26998;48.714;9.414;2024-01-15T10:26:32;97548.00;;;2.08;53.32
41264;BME280;26998;48.714;9.414;2024-01-15T10:28:59;97628.75;;;2.23;54.33
41264;BME280;26998;48.714;9.414;2024-01-15T10:31:27;97628.19;;;2.08;55.42
41264;BME280;26998;48.714;9.414;2024-01-15T10:34:10;97637.38;;;2.30;55.27
41264;BME280;26998;48.714;9.414;2024-01-15T10:36:39;97625.03;;;2.44;54.51
41264;BME280;26998;48.714;9.414;2024-01-15T10:39:07;97620.72;;;2.69;52.94
41264;BME280;26998;48.714;9.414;2024-01-15T10:41:34;97600.97;;;2.28;53.68
41264;BME280;26998;48.714;9.414;2024-01-15T10:44:04;97606.47;;;2.14;54.87
41264;BME280;26998;48.714;9.414;2024-01-15T10:46:31;97620.84;;;2.43;54.83
41264;BME280;26998;48.714;9.414;2024-01-15T10:48:59;97614.19;;;2.47;54.18
41264;BME280;26998;48.714;9.414;2024-01-15T10:51:26;97602.81;;;2.21;54.32
41264;BME280;26998;48.714;9.414;2024-01-15T10:53:53;97611.22;;;2.30;55.06
41264;BME280;26998;48.714;9.414;2024-01-15T10:56:21;97608.00;;;2.28;55.36
41264;BME280;26998;48.714;9.414;2024-01-15T10:58:54;97593.13;;;2.28;54.88
41264;BME280;26998;48.714;9.414;2024-01-15T11:01:26;97597.66;;;2.53;54.52
41264;BME280;26998;48.714;9.414;2024-01-15T11:03:56;97601.50;;;2.50;54.94
41264;BME280;26998;48.714;9.414;2024-01-15T11:06:27;97576.34;;;2.05;55.08
41264;BME280;26998;48.714;9.414;2024-01-15T11:08:56;97575.66;;;2.29;54.92
41264;BME280;26998;48.714;9.414;2024-01-15T11:11:23;97607.59;;;2.38;55.32
41264;BME280;26998;48.714;9.414;2024-01-15T11:13:50;97593.94;;;2.29;56.23
41264;BME280;26998;48.714;9.414;2024-01-15T11:16:19;97614.22;;;2.33;56.23
41264;BME280;26998;48.714;9.414;2024-01-15T11:21:25;97602.84;;;2.59;55.11
41264;BME280;26998;48.714;9.414;2024-01-15T11:23:57;97607.75;;;2.43;55.84
41264;BME280;26998;48.714;9.414;2024-01-15T11:26:37;97610.47;;;2.67;55.52
41264;BME280;26998;48.714;9.414;2024-01-15T11:29:30;97602.28;;;2.57;56.16
41264;BME280;26998;48.714;9.414;2024-01-15T11:32:04;97586.63;;;2.44;55.85
41264;BME280;26998;48.714;9.414;2024-01-15T11:34:51;97590.09;;;2.31;57.30
41264;BME280;26998;48.714;9.414;2024-01-15T11:37:19;97586.72;;;2.24;58.08
41264;BME280;26998;48.714;9.414;2024-01-15T11:39:47;97547.19;;;2.08;58.33
41264;BME280;26998;48.714;9.414;2024-01-15T11:42:14;97593.94;;;2.29;58.36
41264;BME280;26998;48.714;9.414;2024-01-15T11:44:42;97574.34;;;2.51;57.08
41264;BME280;26998;48.714;9.414;2024-01-15T11:47:11;97577.63;;;2.33;57.95
41264;BME280;26998;48.714;9.414;2024-01-15T11:50:01;97543.97;;;2.06;58.38
41264;BME280;26998;48.714;9.414;2024-01-15T11:52:38;97555.09;;;2.39;58.01
41264;BME280;26998;48.714;9.414;2024-01-15T11:55:14;97572.28;;;2.60;57.15
41264;BME280;26998;48.714;9.414;2024-01-15T11:57:50;97562.59;;;2.29;57.83
41264;BME280;26998;48.714;9.414;2024-01-15T12:00:18;97580.22;;;2.40;58.00
41264;BME280;26998;48.714;9.414;2024-01-15T12:02:46;97543.16;;;2.12;58.23
41264;BME280;26998;48.714;9.414;2024-01-15T12:05:15;97583.56;;;2.60;58.31
41264;BME280;26998;48.714;9.414;2024-01-15T12:07:45;97577.03;;;2.38;58.51
41264;BME280;26998;48.714;9.414;2024-01-15T12:10:20;97525.34;;;1.96;59.15
41264;BME280;26998;48.714;9.414;2024-01-15T12:13:13;97583.78;;;2.52;58.22
41264;BME280;26998;48.714;9.414;2024-01-15T12:15:41;97553.50;;;2.38;58.33
41264;BME280;26998;48.714;9.414;2024-01-15T12:18:12;97585.78;;;2.06;59.86
41264;BME280;26998;48.714;9.414;2024-01-15T12:20:39;97570.94;;;2.00;60.49
41264;BME280;26998;48.714;9.414;2024-01-15T12:23:06;97578.81;;;2.44;59.22
41264;BME280;26998;48.714;9.414;2024-01-15T12:25:36;97541.50;;;2.17;59.84
41264;BME280;26998;48.714;9.414;2024-01-15T12:28:04;97541.56;;;2.04;61.08
41264;BME280;26998;48.714;9.414;2024-01-15T12:30:32;97573.41;;;2.39;62.05
41264;BME280;26998;48.714;9.414;2024-01-15T12:33:03;97582.97;;;2.07;64.37
41264;BME280;26998;48.714;9.414;2024-01-15T12:35:31;97589.78;;;2.15;64.93
41264;BME280;26998;48.714;9.414;2024-01-15T12:38:00;97592.22;;;1.97;66.26
41264;BME280;26998;48.714;9.414;2024-01-15T12:40:30;97555.53;;;1.79;66.74
41264;BME280;26998;48.714;9.414;2024-01-15T12:42:57;97549.13;;;1.62;67.29
41264;BME280;26998;48.714;9.414;2024-01-15T12:45:24;97558.38;;;1.58;68.54
41264;BME280;26998;48.714;9.414;2024-01-15T12:47:50;97599.53;;;1.56;70.04
41264;BME280;26998;48.714;9.414;2024-01-15T12:50:23;97601.13;;;1.76;71.07
41264;BME280;26998;48.714;9.414;2024-01-15T12:52:50;97583.91;;;1.36;72.04
41264;BME280;26998;48.714;9.414;2024-01-15T12:55:17;97609.41;;;1.41;73.77
41264;BME280;26998;48.714;9.414;2024-01-15T12:57:44;97587.31;;;1.43;73.98
41264;BME280;26998;48.714;9.414;2024-01-15T13:00:13;97592.13;;;1.33;75.23
41264;BME280;26998;48.714;9.414;2024-01-15T13:02:41;97610.59;;;1.25;76.09
41264;BME280;26998;48.714;9.414;2024-01-15T13:05:10;97593.94;;;1.00;76.67
41264;BME280;26998;48.714;9.414;2024-01-15T13:07:41;97579.06;;;0.94;77.35
41264;BME280;26998;48.714;9.414;2024-01-15T13:10:09;97594.31;;;0.90;78.31
41264;BME280;26998;48.714;9.414;2024-01-15T13:12:38;97563.44;;;0.87;78.30